Time;durP1;ratioP1;P1;durP2;ratioP2;P2;SDS_P1;SDS_P2;PMS_P1;PMS_P2;Temp;Humidity;BMP_temperature;BMP_pressure;BME280_temperature;BME280_humidity;BME280_pressure;Samples;Min_cycle;Max_cycle;Signal;HPM_P1;HPM_P2
2023/05/20 00:01:08;;;;;;;61.85;51.53;;;15.30;86.40;;;;;;4953551;28;89880;-59
2023/05/20 00:03:34;;;;;;;61.53;51.30;;;15.30;86.60;;;;;;4972106;28;90727;-59
2023/05/20 00:06:00;;;;;;;60.08;50.92;;;15.30;87.50;;;;;;4966776;28;89831;-61
2023/05/20 00:08:25;;;;;;;62.47;51.63;;;15.30;87.50;;;;;;4961266;28;89688;-60
2023/05/20 00:10:51;;;;;;;59.35;50.90;;;15.30;87.10;;;;;;4972259;28;89989;-61
2023/05/20 00:13:16;;;;;;;64.10;52.13;;;15.30;84.60;;;;;;4962165;28;91387;-63
2023/05/20 00:15:42;;;;;;;61.47;51.50;;;15.20;87.00;;;;;;4966677;28;90057;-58
2023/05/20 00:18:08;;;;;;;61.42;50.63;;;15.20;87.10;;;;;;4968747;28;90516;-59
2023/05/20 00:20:33;;;;;;;62.85;51.03;;;15.20;87.40;;;;;;4970403;28;89500;-60
2023/05/20 00:22:59;;;;;;;60.40;51.42;;;15.20;86.50;;;;;;4953680;28;90157;-58
2023/05/20 00:25:25;;;;;;;62.03;51.65;;;15.20;86.50;;;;;;4929855;28;93543;-55
2023/05/20 00:27:51;;;;;;;64.55;51.08;;;15.20;87.90;;;;;;4964748;28;89727;-61
2023/05/20 00:30:17;;;;;;;60.75;51.25;;;15.20;87.70;;;;;;4963176;28;88768;-54
2023/05/20 00:32:42;;;;;;;61.58;51.33;;;15.20;88.50;;;;;;4967528;28;90767;-53
2023/05/20 00:35:09;;;;;;;62.22;51.95;;;15.20;88.20;;;;;;4966960;28;89689;-60
2023/05/20 00:37:35;;;;;;;63.10;51.63;;;15.20;86.60;;;;;;4970322;28;90839;-60
2023/05/20 00:40:00;;;;;;;62.53;50.97;;;15.20;87.60;;;;;;4968885;28;89599;-61
2023/05/20 00:42:27;;;;;;;61.75;51.20;;;15.10;88.30;;;;;;4948006;28;91034;-60
2023/05/20 00:44:54;;;;;;;62.38;51.35;;;15.10;87.00;;;;;;4945434;28;90172;-55
2023/05/20 00:47:26;;;;;;;61.45;51.53;;;15.10;88.00;;;;;;4958223;28;97506;-61
2023/05/20 00:49:51;;;;;;;;;;;15.10;87.00;;;;;;4958732;28;90347;-61
2023/05/20 00:52:21;;;;;;;63.50;52.60;;;15.10;87.40;;;;;;4970234;28;91243;-61
2023/05/20 00:54:48;;;;;;;61.58;51.00;;;15.10;88.40;;;;;;4970163;28;89589;-60
2023/05/20 00:57:15;;;;;;;62.63;51.83;;;15.00;87.80;;;;;;4969540;28;89860;-60
2023/05/20 00:59:41;;;;;;;61.78;52.10;;;15.00;87.90;;;;;;4972367;28;90076;-61
2023/05/20 01:02:07;;;;;;;64.68;51.70;;;15.00;87.70;;;;;;4961976;28;91263;-61
2023/05/20 01:04:33;;;;;;;64.90;51.58;;;15.00;87.20;;;;;;4966479;28;90314;-58
2023/05/20 01:07:01;;;;;;;64.45;51.97;;;15.00;86.80;;;;;;4971516;28;89968;-59
2023/05/20 01:09:27;;;;;;;62.78;52.42;;;14.90;88.00;;;;;;4964034;28;89897;-61
2023/05/20 01:12:08;;;;;;;64.57;52.22;;;14.90;86.80;;;;;;4966599;28;90343;-60
2023/05/20 01:14:55;;;;;;;65.80;52.33;;;14.90;87.10;;;;;;4960496;28;92182;-62
2023/05/20 01:17:26;;;;;;;61.95;50.42;;;14.90;88.00;;;;;;4949272;28;90520;-57
2023/05/20 01:19:53;;;;;;;58.60;51.07;;;14.90;88.40;;;;;;4969273;28;89147;-54
2023/05/20 01:22:24;;;;;;;62.03;51.60;;;14.90;88.30;;;;;;4962835;28;90320;-59
2023/05/20 01:24:52;;;;;;;60.53;51.70;;;14.90;88.60;;;;;;4961667;28;90184;-60
2023/05/20 01:27:19;;;;;;;61.05;51.38;;;14.90;87.50;;;;;;4959405;28;90755;-57
2023/05/20 01:29:49;;;;;;;61.38;52.70;;;14.90;88.90;;;;;;4961913;28;89700;-58
2023/05/20 01:32:25;;;;;;;62.28;52.45;;;14.90;88.70;;;;;;4969914;28;89390;-58
2023/05/20 01:34:52;;;;;;;63.78;52.30;;;14.90;88.70;;;;;;4966226;28;89929;-58
2023/05/20 01:37:19;;;;;;;62.00;52.53;;;14.90;88.30;;;;;;4963132;28;90623;-60
2023/05/20 01:39:48;;;;;;;60.88;52.03;;;14.90;88.10;;;;;;4960628;28;89949;-59
2023/05/20 01:42:15;;;;;;;60.67;51.45;;;14.80;87.80;;;;;;4956131;28;90761;-59
2023/05/20 01:44:41;;;;;;;61.67;52.15;;;14.90;88.70;;;;;;4957540;28;89941;-58
2023/05/20 01:47:06;;;;;;;61.00;51.65;;;14.90;88.40;;;;;;4955438;28;89917;-59
2023/05/20 01:49:32;;;;;;;61.38;51.85;;;14.90;89.00;;;;;;4954802;28;90705;-58
2023/05/20 01:51:58;;;;;;;60.05;51.03;;;14.90;87.70;;;;;;4956384;28;91107;-61
2023/05/20 01:54:24;;;;;;;60.55;51.50;;;14.90;89.00;;;;;;4962502;28;89469;-60
2023/05/20 01:56:50;;;;;;;59.70;51.60;;;14.80;87.80;;;;;;4964763;28;90505;-59
2023/05/20 01:59:15;;;;;;;60.05;52.28;;;14.80;87.90;;;;;;4952799;28;90108;-61
2023/05/20 02:01:41;;;;;;;59.75;51.40;;;14.80;87.10;;;;;;4961231;28;89487;-59
2023/05/20 02:04:07;;;;;;;59.70;50.95;;;14.80;88.70;;;;;;4965843;28;90478;-61
2023/05/20 02:06:33;;;;;;;58.05;50.53;;;14.80;88.90;;;;;;4969061;28;90189;-58
2023/05/20 02:08:58;;;;;;;60.67;51.28;;;14.80;88.40;;;;;;4965962;28;89121;-59
2023/05/20 02:11:25;;;;;;;63.35;52.03;;;14.80;87.70;;;;;;4959624;28;94537;-56
2023/05/20 02:13:50;;;;;;;61.10;51.55;;;14.80;87.70;;;;;;4967901;28;90088;-62
2023/05/20 02:16:16;;;;;;;58.08;50.15;;;14.80;87.90;;;;;;4961018;28;96713;-57
2023/05/20 02:18:42;;;;;;;61.67;52.28;;;14.80;87.60;;;;;;4961720;28;89901;-57
2023/05/20 02:21:08;;;;;;;58.97;51.13;;;14.70;86.50;;;;;;4969385;28;89678;-57
2023/05/20 02:23:34;;;;;;;61.47;51.13;;;14.70;87.80;;;;;;4968888;28;89641;-58
2023/05/20 02:26:00;;;;;;;60.40;51.58;;;14.70;89.10;;;;;;4958504;28;91564;-60
2023/05/20 02:28:26;;;;;;;60.75;50.90;;;14.70;87.90;;;;;;4962373;28;91216;-59
2023/05/20 02:30:52;;;;;;;61.22;51.60;;;14.70;88.20;;;;;;4964790;28;89930;-51
2023/05/20 02:33:18;;;;;;;58.95;50.90;;;14.70;87.70;;;;;;4957085;28;89188;-58
2023/05/20 02:35:44;;;;;;;59.17;50.63;;;14.70;87.60;;;;;;4956320;28;90540;-59
2023/05/20 02:38:11;;;;;;;57.85;50.25;;;14.70;89.00;;;;;;4956608;28;92310;-60
2023/05/20 02:40:36;;;;;;;61.13;50.58;;;14.70;88.40;;;;;;4957203;28;98972;-59
2023/05/20 02:43:02;;;;;;;57.97;50.10;;;14.70;87.80;;;;;;4948599;28;91276;-55
2023/05/20 02:45:28;;;;;;;59.35;50.63;;;14.70;88.80;;;;;;4955446;28;90470;-62
2023/05/20 02:47:54;;;;;;;59.05;50.65;;;14.70;88.00;;;;;;4955175;28;90151;-57
2023/05/20 02:50:20;;;;;;;58.97;50.17;;;14.70;88.50;;;;;;4958927;28;89635;-59
2023/05/20 02:52:46;;;;;;;60.40;51.38;;;14.70;88.80;;;;;;4957396;28;97000;-58
2023/05/20 02:55:12;;;;;;;61.85;50.42;;;14.60;87.70;;;;;;4964373;28;90151;-58
2023/05/20 02:57:38;;;;;;;58.83;50.50;;;14.60;87.40;;;;;;4954794;28;89792;-54
2023/05/20 03:00:10;;;;;;;56.75;49.78;;;14.70;87.60;;;;;;4958312;28;90718;-51
2023/05/20 03:02:36;;;;;;;57.50;50.38;;;14.60;88.90;;;;;;4950148;28;90792;-60
2023/05/20 03:05:02;;;;;;;58.45;49.75;;;14.70;88.40;;;;;;4955364;28;95553;-61
2023/05/20 03:07:28;;;;;;;60.17;50.70;;;14.60;89.00;;;;;;4958114;28;89836;-60
2023/05/20 03:09:54;;;;;;;57.38;49.70;;;14.60;88.30;;;;;;4959418;28;92216;-58
2023/05/20 03:12:19;;;;;;;58.88;50.20;;;14.60;88.10;;;;;;4963156;28;89799;-55
2023/05/20 03:14:45;;;;;;;60.08;49.83;;;14.60;88.00;;;;;;4959494;28;89709;-61
2023/05/20 03:17:11;;;;;;;61.75;50.40;;;14.60;88.60;;;;;;4963063;28;89801;-59
2023/05/20 03:19:36;;;;;;;60.92;50.55;;;14.60;87.70;;;;;;4957477;28;89631;-57
2023/05/20 03:22:03;;;;;;;56.35;49.35;;;14.60;87.20;;;;;;4955470;28;88979;-61
2023/05/20 03:24:28;;;;;;;59.63;50.30;;;14.60;89.10;;;;;;4949101;28;90197;-52
2023/05/20 03:26:54;;;;;;;57.55;49.40;;;14.60;87.50;;;;;;4954207;28;89873;-59
2023/05/20 03:29:22;;;;;;;57.45;49.92;;;14.60;88.10;;;;;;4950042;28;90780;-62
2023/05/20 03:31:47;;;;;;;57.05;49.50;;;14.60;87.50;;;;;;4959365;28;94996;-60
2023/05/20 03:34:13;;;;;;;57.00;49.42;;;14.60;88.30;;;;;;4951316;28;89941;-53
2023/05/20 03:36:39;;;;;;;55.95;49.17;;;14.60;88.70;;;;;;4955836;28;90452;-53
2023/05/20 03:39:04;;;;;;;59.60;50.17;;;14.50;89.10;;;;;;4950519;28;91012;-60
2023/05/20 03:41:31;;;;;;;57.17;50.00;;;14.60;87.70;;;;;;4954072;28;90987;-60
2023/05/20 03:43:57;;;;;;;56.58;49.58;;;14.50;88.20;;;;;;4949993;28;90556;-58
2023/05/20 03:46:23;;;;;;;57.13;49.95;;;14.50;88.40;;;;;;4959848;28;88940;-55
2023/05/20 03:48:48;;;;;;;57.70;49.38;;;14.50;87.00;;;;;;4957317;28;89715;-60
2023/05/20 03:51:14;;;;;;;57.72;49.58;;;14.50;87.80;;;;;;4956707;28;90479;-61
2023/05/20 03:53:39;;;;;;;57.30;49.38;;;14.50;87.20;;;;;;4949885;28;93097;-61
2023/05/20 03:56:05;;;;;;;57.75;50.15;;;14.50;87.60;;;;;;4956220;28;92345;-54
2023/05/20 03:58:31;;;;;;;57.42;49.92;;;14.50;88.00;;;;;;4952420;28;97167;-61
2023/05/20 04:00:57;;;;;;;56.90;49.38;;;14.50;87.60;;;;;;4956830;28;89573;-61
2023/05/20 04:03:23;;;;;;;57.10;49.58;;;14.50;87.90;;;;;;4962881;28;89562;-60
2023/05/20 04:05:49;;;;;;;56.80;49.13;;;14.50;88.40;;;;;;4952332;28;91514;-57
2023/05/20 04:08:14;;;;;;;56.53;49.70;;;14.50;88.10;;;;;;4953270;28;90749;-56
2023/05/20 04:10:44;;;;;;;55.97;49.60;;;14.50;88.70;;;;;;4949700;28;89313;-60
2023/05/20 04:13:10;;;;;;;56.60;49.47;;;14.40;86.30;;;;;;4959722;28;89693;-57
2023/05/20 04:15:37;;;;;;;56.15;49.30;;;14.40;88.00;;;;;;4947163;28;89910;-62
2023/05/20 04:18:04;;;;;;;56.00;49.38;;;14.40;88.40;;;;;;4951752;28;99331;-61
2023/05/20 04:20:30;;;;;;;56.83;50.00;;;14.40;88.60;;;;;;4951671;28;91105;-46
2023/05/20 04:22:56;;;;;;;58.35;49.55;;;14.40;86.80;;;;;;4952813;28;90788;-47
2023/05/20 04:25:22;;;;;;;56.13;49.45;;;14.50;88.60;;;;;;4949758;28;89670;-47
2023/05/20 04:27:48;;;;;;;56.78;49.22;;;14.40;88.20;;;;;;4958280;28;90090;-48
2023/05/20 04:30:16;;;;;;;58.03;49.85;;;14.40;87.50;;;;;;4968196;28;89924;-47
2023/05/20 04:32:42;;;;;;;55.92;49.15;;;14.40;87.50;;;;;;4960375;28;90592;-46
2023/05/20 04:35:10;;;;;;;56.53;49.45;;;14.40;86.90;;;;;;4966290;28;89357;-46
2023/05/20 04:37:37;;;;;;;59.63;49.80;;;14.40;86.50;;;;;;4966298;28;90163;-46
2023/05/20 04:40:05;;;;;;;55.78;48.83;;;14.40;86.60;;;;;;4959107;28;90482;-49
2023/05/20 04:42:32;;;;;;;55.58;49.10;;;14.40;87.50;;;;;;4968000;28;91228;-47
2023/05/20 04:45:00;;;;;;;56.65;49.05;;;14.40;86.80;;;;;;4960697;28;90341;-48
2023/05/20 04:47:27;;;;;;;55.95;48.95;;;14.40;87.10;;;;;;4966258;28;90165;-47
2023/05/20 04:49:56;;;;;;;55.60;49.17;;;14.40;88.10;;;;;;4963947;28;90611;-54
2023/05/20 04:52:26;;;;;;;56.90;49.17;;;14.50;88.40;;;;;;4967788;28;89897;-62
2023/05/20 04:54:52;;;;;;;58.10;49.33;;;14.40;87.00;;;;;;4965410;28;92342;-59
2023/05/20 04:57:21;;;;;;;56.08;49.22;;;14.50;86.20;;;;;;4963882;28;90794;-54
2023/05/20 04:59:46;;;;;;;55.88;48.97;;;14.50;87.10;;;;;;4962122;28;89176;-59
2023/05/20 05:02:13;;;;;;;56.28;48.95;;;14.50;85.90;;;;;;4963432;28;90146;-59
2023/05/20 05:04:39;;;;;;;56.17;49.50;;;14.50;86.50;;;;;;4961866;28;92021;-55
2023/05/20 05:07:05;;;;;;;56.15;48.78;;;14.50;87.00;;;;;;4961933;28;92170;-59
2023/05/20 05:09:30;;;;;;;55.05;48.47;;;14.50;87.40;;;;;;4970884;28;89853;-61
2023/05/20 05:11:56;;;;;;;57.65;49.33;;;14.50;87.90;;;;;;4958888;28;90535;-62
2023/05/20 05:14:22;;;;;;;55.08;48.58;;;14.50;86.80;;;;;;4963747;28;89492;-61
2023/05/20 05:16:48;;;;;;;57.33;49.50;;;14.50;86.60;;;;;;4966706;28;89900;-60
2023/05/20 05:19:14;;;;;;;55.50;48.60;;;14.50;86.00;;;;;;4961891;28;89654;-60
2023/05/20 05:21:40;;;;;;;54.70;48.55;;;14.60;86.40;;;;;;4966135;28;89605;-59
2023/05/20 05:24:06;;;;;;;58.13;49.25;;;14.60;85.90;;;;;;4967575;28;89000;-60
2023/05/20 05:26:32;;;;;;;58.28;49.03;;;14.60;86.50;;;;;;4958992;28;92978;-61
2023/05/20 05:28:58;;;;;;;57.33;49.30;;;14.70;86.10;;;;;;4964342;28;89971;-60
2023/05/20 05:31:23;;;;;;;56.65;49.53;;;14.70;85.70;;;;;;4961959;28;91466;-60
2023/05/20 05:33:49;;;;;;;55.70;48.47;;;14.70;85.60;;;;;;4962364;28;90276;-58
2023/05/20 05:36:15;;;;;;;56.88;49.60;;;14.70;85.60;;;;;;4965124;28;90072;-57
2023/05/20 05:38:41;;;;;;;55.97;49.72;;;14.70;84.40;;;;;;4957513;28;89832;-58
2023/05/20 05:41:07;;;;;;;55.05;48.47;;;14.70;84.50;;;;;;4961335;28;89369;-57
2023/05/20 05:43:32;;;;;;;56.35;49.47;;;14.70;84.50;;;;;;4962400;28;90223;-61
2023/05/20 05:45:58;;;;;;;56.47;49.08;;;14.80;84.90;;;;;;4958814;28;90637;-59
2023/05/20 05:48:24;;;;;;;57.75;49.65;;;14.80;84.70;;;;;;4962795;28;89713;-59
2023/05/20 05:50:49;;;;;;;56.20;49.10;;;14.80;84.00;;;;;;4959823;28;91121;-58
2023/05/20 05:53:15;;;;;;;54.40;48.35;;;14.90;84.40;;;;;;4962187;28;89438;-58
2023/05/20 05:55:41;;;;;;;56.85;49.35;;;14.90;84.70;;;;;;4960489;28;91062;-58
2023/05/20 05:58:09;;;;;;;55.55;48.58;;;14.90;83.50;;;;;;4963800;28;90416;-57
2023/05/20 06:00:34;;;;;;;58.10;49.17;;;14.90;83.50;;;;;;4964926;28;89855;-47
2023/05/20 06:03:00;;;;;;;56.85;49.20;;;15.00;83.30;;;;;;4964840;28;90457;-47
2023/05/20 06:05:26;;;;;;;57.55;49.67;;;15.00;83.80;;;;;;4961696;28;90454;-49
2023/05/20 06:07:51;;;;;;;56.53;49.45;;;15.00;83.20;;;;;;4960630;28;90471;-49
2023/05/20 06:10:17;;;;;;;55.85;48.95;;;15.00;83.20;;;;;;4961016;28;90480;-48
2023/05/20 06:12:43;;;;;;;56.63;48.50;;;15.00;82.80;;;;;;4956323;28;91213;-46
2023/05/20 06:15:09;;;;;;;56.60;48.45;;;15.10;83.80;;;;;;4957923;28;90872;-48
2023/05/20 06:17:35;;;;;;;59.47;48.85;;;15.10;84.40;;;;;;4961203;28;90113;-46
2023/05/20 06:20:00;;;;;;;55.95;49.03;;;15.20;84.80;;;;;;4961545;28;92180;-46
2023/05/20 06:22:26;;;;;;;57.08;49.15;;;15.20;83.80;;;;;;4963445;28;91431;-46
2023/05/20 06:24:52;;;;;;;57.83;49.13;;;15.20;82.40;;;;;;4970746;28;90585;-47
2023/05/20 06:27:18;;;;;;;55.67;48.50;;;15.20;82.80;;;;;;4962732;28;90313;-48
2023/05/20 06:29:44;;;;;;;57.10;49.08;;;15.30;84.00;;;;;;4964678;28;91663;-47
2023/05/20 06:32:09;;;;;;;59.10;48.92;;;15.30;83.20;;;;;;4961469;28;89691;-50
2023/05/20 06:34:35;;;;;;;57.95;49.58;;;15.40;83.30;;;;;;4967895;28;90096;-51
2023/05/20 06:37:01;;;;;;;56.90;48.92;;;15.30;82.70;;;;;;4959628;28;88856;-48
2023/05/20 06:39:26;;;;;;;56.58;48.83;;;15.40;83.00;;;;;;4959236;28;90333;-62
2023/05/20 06:41:52;;;;;;;59.28;48.85;;;15.40;82.70;;;;;;4956020;28;89760;-61
2023/05/20 06:44:18;;;;;;;57.35;48.85;;;15.50;82.70;;;;;;4962240;28;90606;-59
2023/05/20 06:46:44;;;;;;;57.60;48.85;;;15.50;82.40;;;;;;4959207;28;90446;-61
2023/05/20 06:49:09;;;;;;;56.78;48.45;;;15.60;82.20;;;;;;4961319;28;90023;-57
2023/05/20 06:51:35;;;;;;;56.45;48.63;;;15.60;82.60;;;;;;4963181;28;89928;-60
2023/05/20 06:54:01;;;;;;;58.97;48.42;;;15.70;82.00;;;;;;4959632;28;91329;-58
2023/05/20 06:56:26;;;;;;;57.13;49.08;;;15.70;82.10;;;;;;4961058;28;90237;-59
2023/05/20 06:58:52;;;;;;;57.00;49.15;;;15.70;81.20;;;;;;4964066;28;90998;-59
2023/05/20 07:01:18;;;;;;;55.88;48.50;;;15.70;81.40;;;;;;4953889;28;92399;-58
2023/05/20 07:03:43;;;;;;;59.83;49.75;;;15.80;81.60;;;;;;4958627;28;91118;-61
2023/05/20 07:06:09;;;;;;;59.05;49.20;;;15.80;80.40;;;;;;4958262;28;90348;-59
2023/05/20 07:08:35;;;;;;;56.25;49.03;;;15.80;80.30;;;;;;4954782;28;91586;-53
2023/05/20 07:11:01;;;;;;;56.53;48.55;;;15.90;80.50;;;;;;4964185;28;89426;-58
2023/05/20 07:13:26;;;;;;;57.83;48.92;;;15.90;81.00;;;;;;4956574;28;90341;-61
2023/05/20 07:15:52;;;;;;;57.05;49.05;;;15.90;80.30;;;;;;4962255;28;89782;-58
2023/05/20 07:18:18;;;;;;;58.17;48.70;;;15.90;80.30;;;;;;4958123;28;89673;-59
2023/05/20 07:20:44;;;;;;;57.58;48.67;;;15.90;80.50;;;;;;4962886;28;90342;-60
2023/05/20 07:23:10;;;;;;;57.30;49.17;;;16.00;80.50;;;;;;4963531;28;90023;-55
2023/05/20 07:25:35;;;;;;;57.95;49.55;;;16.00;79.70;;;;;;4965978;28;89365;-58
2023/05/20 07:28:01;;;;;;;57.10;49.10;;;16.00;79.70;;;;;;4963009;28;89549;-58
2023/05/20 07:30:27;;;;;;;57.08;49.13;;;16.10;79.70;;;;;;4956257;28;91276;-60
2023/05/20 07:32:53;;;;;;;59.92;49.63;;;16.10;79.50;;;;;;4963415;28;92263;-62
2023/05/20 07:35:18;;;;;;;59.03;49.05;;;16.10;79.30;;;;;;4968516;28;89925;-62
2023/05/20 07:37:44;;;;;;;58.15;49.00;;;16.10;80.30;;;;;;4962505;28;91061;-61
2023/05/20 07:40:11;;;;;;;58.60;49.15;;;16.10;79.60;;;;;;4959527;28;89815;-53
2023/05/20 07:42:36;;;;;;;57.95;50.10;;;16.20;79.30;;;;;;4956144;28;93157;-60
2023/05/20 07:45:02;;;;;;;59.47;49.42;;;16.20;78.70;;;;;;4953152;28;90617;-62
2023/05/20 07:47:29;;;;;;;59.53;49.22;;;16.20;79.20;;;;;;4955820;28;89576;-59
2023/05/20 07:49:55;;;;;;;59.50;49.35;;;16.30;79.30;;;;;;4961778;28;88975;-56
2023/05/20 07:52:21;;;;;;;59.03;49.50;;;16.30;79.60;;;;;;4959880;28;91066;-61
2023/05/20 07:54:46;;;;;;;57.75;49.15;;;16.30;78.90;;;;;;4965864;28;89777;-61
2023/05/20 07:57:12;;;;;;;57.63;49.08;;;16.30;78.60;;;;;;4961934;28;91146;-60
2023/05/20 07:59:38;;;;;;;58.53;49.47;;;16.40;79.40;;;;;;4970547;28;90463;-61
2023/05/20 08:02:04;;;;;;;58.58;49.65;;;16.40;79.00;;;;;;4969367;28;90170;-58
2023/05/20 08:04:29;;;;;;;58.70;49.00;;;16.50;79.10;;;;;;4963989;28;89591;-60
2023/05/20 08:06:55;;;;;;;58.88;49.47;;;16.50;79.30;;;;;;4964858;28;90470;-58
2023/05/20 08:09:21;;;;;;;58.60;49.10;;;16.60;78.70;;;;;;4957474;28;95107;-50
2023/05/20 08:11:47;;;;;;;57.40;49.42;;;16.60;78.90;;;;;;4961544;28;90566;-48
2023/05/20 08:14:12;;;;;;;57.55;48.80;;;16.60;78.30;;;;;;4968367;28;89039;-46
2023/05/20 08:16:38;;;;;;;58.45;49.30;;;16.60;78.60;;;;;;4963006;28;90403;-48
2023/05/20 08:19:04;;;;;;;58.58;49.13;;;16.70;79.20;;;;;;4962714;28;91610;-56
2023/05/20 08:21:29;;;;;;;58.58;49.05;;;16.70;78.30;;;;;;4960839;28;96348;-60
2023/05/20 08:23:55;;;;;;;57.80;49.25;;;16.70;78.90;;;;;;4963929;28;89894;-61
2023/05/20 08:26:20;;;;;;;58.72;49.08;;;16.80;78.60;;;;;;4966704;28;89774;-58
2023/05/20 08:28:47;;;;;;;57.88;48.83;;;16.80;79.10;;;;;;4963387;28;89623;-59
2023/05/20 08:31:13;;;;;;;58.33;49.50;;;16.80;78.90;;;;;;4963242;28;90036;-60
2023/05/20 08:33:39;;;;;;;59.22;49.95;;;16.90;78.30;;;;;;4951936;28;91702;-59
2023/05/20 08:36:07;;;;;;;58.03;49.58;;;16.90;78.00;;;;;;4952832;28;94485;-60
2023/05/20 08:38:32;;;;;;;60.97;49.47;;;16.90;77.60;;;;;;4963217;28;89792;-60
2023/05/20 08:40:58;;;;;;;58.30;49.67;;;16.90;78.90;;;;;;4954284;28;89683;-56
2023/05/20 08:43:24;;;;;;;58.92;49.22;;;17.00;77.70;;;;;;4950033;28;90040;-53
2023/05/20 08:45:53;;;;;;;57.67;48.85;;;17.00;78.30;;;;;;4957441;28;98973;-62
2023/05/20 08:48:22;;;;;;;65.18;49.72;;;17.00;78.70;;;;;;4963425;28;94390;-62
2023/05/20 08:50:52;;;;;;;58.75;49.63;;;17.10;79.30;;;;;;4958098;28;92542;-60
2023/05/20 08:53:19;;;;;;;60.08;49.70;;;17.10;79.10;;;;;;4960497;28;89764;-60
2023/05/20 08:56:01;;;;;;;59.88;49.65;;;17.20;78.60;;;;;;4957901;28;89839;-62
2023/05/20 08:58:28;;;;;;;59.28;49.63;;;17.20;79.30;;;;;;4954897;28;90095;-62
2023/05/20 09:00:54;;;;;;;58.67;49.40;;;17.30;78.90;;;;;;4956544;28;90062;-54
2023/05/20 09:03:20;;;;;;;59.97;49.40;;;17.30;78.90;;;;;;4966031;28;90257;-62
2023/05/20 09:05:46;;;;;;;61.13;49.33;;;17.30;79.10;;;;;;4962153;28;94106;-55
2023/05/20 09:08:12;;;;;;;59.45;49.50;;;17.30;78.70;;;;;;4967999;28;89711;-52
2023/05/20 09:10:40;;;;;;;62.38;49.85;;;17.50;78.90;;;;;;4948967;28;91128;-58
2023/05/20 09:13:07;;;;;;;60.72;49.40;;;17.50;78.30;;;;;;4963088;28;90981;-56
2023/05/20 09:15:34;;;;;;;61.45;49.90;;;17.50;78.30;;;;;;4960485;28;90221;-58
2023/05/20 09:18:05;;;;;;;59.97;49.70;;;17.60;77.90;;;;;;4963108;28;90238;-58
2023/05/20 09:20:35;;;;;;;60.67;49.77;;;17.70;77.10;;;;;;4962676;28;95387;-57
2023/05/20 09:23:05;;;;;;;60.08;49.67;;;17.70;77.20;;;;;;4961300;28;91284;-56
2023/05/20 09:25:32;;;;;;;60.88;50.10;;;17.70;76.90;;;;;;4944383;28;89838;-56
2023/05/20 09:27:57;;;;;;;63.20;50.45;;;17.80;76.90;;;;;;4948761;28;91636;-59
2023/05/20 09:30:24;;;;;;;61.83;50.05;;;17.80;76.20;;;;;;4951884;28;90683;-59
2023/05/20 09:32:57;;;;;;;63.78;49.90;;;17.80;76.20;;;;;;4953300;28;89958;-58
2023/05/20 09:35:25;;;;;;;60.55;50.33;;;17.90;76.30;;;;;;4957209;28;91256;-55
2023/05/20 09:37:53;;;;;;;62.50;50.35;;;17.90;76.40;;;;;;4950295;28;91427;-59
2023/05/20 09:40:25;;;;;;;61.67;50.42;;;17.90;76.20;;;;;;4951447;28;90561;-57
2023/05/20 09:42:55;;;;;;;;;;;18.00;76.20;;;;;;4951891;28;89868;-59
2023/05/20 09:45:21;;;;;;;60.20;50.10;;;18.00;76.10;;;;;;4951417;28;91890;-55
2023/05/20 09:47:51;;;;;;;62.88;50.35;;;18.00;75.60;;;;;;4954456;28;97971;-59
2023/05/20 09:50:19;;;;;;;61.20;50.50;;;18.10;75.60;;;;;;4953434;28;91873;-59
2023/05/20 09:52:47;;;;;;;64.07;50.70;;;18.10;75.50;;;;;;4942178;28;89267;-59
2023/05/20 09:55:14;;;;;;;63.40;50.13;;;18.10;75.40;;;;;;4953204;28;91813;-60
2023/05/20 09:57:41;;;;;;;63.05;50.70;;;18.20;75.40;;;;;;4968741;28;91505;-59
2023/05/20 10:00:07;;;;;;;61.17;50.47;;;18.20;75.00;;;;;;4942602;28;91047;-55
2023/05/20 10:02:34;;;;;;;62.50;50.40;;;18.30;74.70;;;;;;4957191;28;91324;-59
2023/05/20 10:05:05;;;;;;;62.28;50.40;;;18.30;74.20;;;;;;4948018;28;90705;-60
2023/05/20 10:07:52;;;;;;;63.50;50.58;;;18.40;73.80;;;;;;4945897;28;90075;-60
2023/05/20 10:10:27;;;;;;;62.58;50.42;;;18.40;73.70;;;;;;4950454;28;89625;-58
2023/05/20 10:13:08;;;;;;;65.05;50.45;;;18.40;73.90;;;;;;4950038;28;90523;-57
2023/05/20 10:15:58;;;;;;;63.35;50.53;;;18.40;74.10;;;;;;4950129;28;90163;-59
2023/05/20 10:18:55;;;;;;;62.63;50.60;;;18.40;73.80;;;;;;4944886;28;90278;-56
2023/05/20 10:21:23;;;;;;;67.85;51.38;;;18.50;74.10;;;;;;4944701;28;90491;-57
2023/05/20 10:23:52;;;;;;;73.10;52.25;;;18.50;74.60;;;;;;4939652;28;90220;-58
2023/05/20 10:26:18;;;;;;;73.03;51.88;;;18.50;74.50;;;;;;4941646;28;94608;-56
2023/05/20 10:28:45;;;;;;;75.30;52.05;;;18.50;74.30;;;;;;4961939;28;89673;-55
2023/05/20 10:31:20;;;;;;;73.57;52.22;;;18.50;74.30;;;;;;4959601;28;90149;-56
2023/05/20 10:33:46;;;;;;;70.20;51.88;;;18.60;74.20;;;;;;4957485;28;89693;-55
2023/05/20 10:36:44;;;;;;;73.43;52.38;;;18.60;74.20;;;;;;4961620;28;91131;-55
2023/05/20 10:39:16;;;;;;;71.38;52.15;;;18.60;74.20;;;;;;4942355;28;90505;-56
2023/05/20 10:41:42;;;;;;;70.30;51.97;;;18.70;74.00;;;;;;4955020;28;91086;-56
2023/05/20 10:44:07;;;;;;;73.00;51.97;;;18.80;73.70;;;;;;4958374;28;89925;-56
2023/05/20 10:46:34;;;;;;;72.25;52.15;;;18.80;73.40;;;;;;4962763;28;92006;-57
2023/05/20 10:49:03;;;;;;;67.53;51.95;;;18.80;73.30;;;;;;4964696;28;90063;-58
2023/05/20 10:51:31;;;;;;;71.07;52.30;;;18.80;73.30;;;;;;4948884;28;98006;-55
2023/05/20 10:53:57;;;;;;;66.80;51.83;;;18.80;73.00;;;;;;4947026;28;91586;-57
2023/05/20 10:56:24;;;;;;;71.63;52.13;;;18.90;72.90;;;;;;4949784;28;93656;-55
2023/05/20 10:58:51;;;;;;;72.28;52.63;;;18.90;72.90;;;;;;4947737;28;91818;-55
2023/05/20 11:01:18;;;;;;;67.88;51.97;;;18.90;72.30;;;;;;4945308;28;97294;-55
2023/05/20 11:03:48;;;;;;;68.22;51.97;;;19.00;70.70;;;;;;4947263;28;89732;-58
2023/05/20 11:06:18;;;;;;;67.47;51.97;;;19.00;70.20;;;;;;4965956;28;90810;-57
2023/05/20 11:08:44;;;;;;;65.57;52.03;;;19.00;69.70;;;;;;4947403;28;89414;-59
2023/05/20 11:11:12;;;;;;;69.88;52.10;;;19.10;69.40;;;;;;4951629;28;90107;-58
2023/05/20 11:13:38;;;;;;;64.43;51.38;;;19.10;70.20;;;;;;4952796;28;90518;-57
2023/05/20 11:16:04;;;;;;;65.18;51.45;;;19.20;69.40;;;;;;4934257;28;91659;-55
2023/05/20 11:18:30;;;;;;;69.60;51.70;;;19.20;68.60;;;;;;4944957;28;90721;-57
2023/05/20 11:20:58;;;;;;;64.03;51.63;;;19.20;67.80;;;;;;4938432;28;90044;-56
2023/05/20 11:23:25;;;;;;;66.72;51.75;;;19.20;67.20;;;;;;4946206;28;93722;-54
2023/05/20 11:25:51;;;;;;;64.88;51.42;;;19.30;66.20;;;;;;4937095;28;91431;-55
2023/05/20 11:28:20;;;;;;;64.85;51.33;;;19.30;64.90;;;;;;4946673;28;91216;-57
2023/05/20 11:30:47;;;;;;;64.78;51.15;;;19.40;64.60;;;;;;4940998;28;90554;-57
2023/05/20 11:33:14;;;;;;;64.03;51.00;;;19.40;65.80;;;;;;4946739;28;89566;-58
2023/05/20 11:35:48;;;;;;;66.05;51.17;;;19.50;64.70;;;;;;4944485;28;90183;-57
2023/05/20 11:38:14;;;;;;;64.55;51.40;;;19.50;64.40;;;;;;4950117;28;90183;-53
2023/05/20 11:40:54;;;;;;;64.03;50.92;;;19.50;64.20;;;;;;4948268;28;92020;-53
2023/05/20 11:43:21;;;;;;;68.57;51.38;;;19.60;64.40;;;;;;4948512;28;91703;-52
2023/05/20 11:45:53;;;;;;;62.90;51.17;;;19.60;63.00;;;;;;4935416;28;90457;-51
2023/05/20 11:48:19;;;;;;;68.97;51.90;;;19.60;63.90;;;;;;4944150;28;96217;-56
2023/05/20 11:50:46;;;;;;;63.53;51.47;;;19.60;64.60;;;;;;4946979;28;93248;-58
2023/05/20 11:53:17;;;;;;;65.72;51.65;;;19.60;64.60;;;;;;4947793;28;91123;-59
2023/05/20 11:55:57;;;;;;;67.40;51.50;;;19.70;64.60;;;;;;4941071;28;95844;-57
2023/05/20 11:58:30;;;;;;;66.57;51.40;;;19.70;65.10;;;;;;4948564;28;89221;-55
2023/05/20 12:00:56;;;;;;;68.07;51.60;;;19.70;64.50;;;;;;4947315;28;90694;-56
2023/05/20 12:03:22;;;;;;;65.75;51.67;;;19.70;64.00;;;;;;4951257;28;89866;-58
2023/05/20 12:05:49;;;;;;;65.55;51.55;;;19.80;65.00;;;;;;4944622;28;91782;-53
2023/05/20 12:08:15;;;;;;;67.28;51.75;;;19.80;64.70;;;;;;4948274;28;90562;-55
2023/05/20 12:10:41;;;;;;;64.88;51.30;;;19.80;64.40;;;;;;4953089;28;90962;-54
2023/05/20 12:13:12;;;;;;;65.70;51.30;;;19.90;65.50;;;;;;4965243;28;90412;-58
2023/05/20 12:15:38;;;;;;;66.10;51.55;;;19.90;64.40;;;;;;4965704;28;90356;-54
2023/05/20 12:18:04;;;;;;;65.25;51.20;;;20.00;64.30;;;;;;4953685;28;90075;-54
2023/05/20 12:20:32;;;;;;;65.50;51.65;;;20.00;65.50;;;;;;4947742;28;90814;-54
2023/05/20 12:22:58;;;;;;;63.70;51.45;;;20.00;64.60;;;;;;4955695;28;91769;-53
2023/05/20 12:25:24;;;;;;;65.72;51.50;;;20.00;64.60;;;;;;4947128;28;90586;-55
2023/05/20 12:27:50;;;;;;;65.00;51.78;;;20.00;64.50;;;;;;4953892;28;89693;-57